sensor_id;sensor_type;location;lat;lon;timestamp;P1;durP1;ratioP1;P2;durP2;ratioP2
56242;SDS011;42155;53.096;23.226;2023-04-19T00:01:33;4.25;;;3.03;;
56242;SDS011;42155;53.096;23.226;2023-04-19T00:03:34;7.20;;;3.78;;
56242;SDS011;42155;53.096;23.226;2023-04-19T00:05:34;7.28;;;3.50;;
56242;SDS011;42155;53.096;23.226;2023-04-19T00:07:35;10.18;;;3.72;;
56242;SDS011;42155;53.096;23.226;2023-04-19T00:09:35;5.28;;;3.50;;
56242;SDS011;42155;53.096;23.226;2023-04-19T00:11:36;6.32;;;3.60;;
56242;SDS011;42155;53.096;23.226;2023-04-19T00:13:36;4.60;;;3.17;;
56242;SDS011;42155;53.096;23.226;2023-04-19T00:15:36;6.60;;;3.58;;
56242;SDS011;42155;53.096;23.226;2023-04-19T00:17:37;4.90;;;3.30;;
56242;SDS011;42155;53.096;23.226;2023-04-19T00:19:37;5.90;;;3.50;;
56242;SDS011;42155;53.096;23.226;2023-04-19T00:21:38;7.68;;;3.95;;
56242;SDS011;42155;53.096;23.226;2023-04-19T00:23:38;5.82;;;3.90;;
56242;SDS011;42155;53.096;23.226;2023-04-19T00:25:38;6.65;;;3.78;;
56242;SDS011;42155;53.096;23.226;2023-04-19T00:27:39;5.15;;;3.40;;
56242;SDS011;42155;53.096;23.226;2023-04-19T00:29:39;7.38;;;3.95;;
56242;SDS011;42155;53.096;23.226;2023-04-19T00:31:39;6.32;;;3.90;;
56242;SDS011;42155;53.096;23.226;2023-04-19T00:33:40;6.30;;;4.00;;
56242;SDS011;42155;53.096;23.226;2023-04-19T00:35:40;6.07;;;3.60;;
56242;SDS011;42155;53.096;23.226;2023-04-19T00:37:41;6.50;;;3.92;;
56242;SDS011;42155;53.096;23.226;2023-04-19T00:39:41;5.75;;;3.65;;
56242;SDS011;42155;53.096;23.226;2023-04-19T00:41:41;6.05;;;3.85;;
56242;SDS011;42155;53.096;23.226;2023-04-19T00:43:42;7.55;;;4.55;;
56242;SDS011;42155;53.096;23.226;2023-04-19T00:45:42;7.47;;;3.78;;
56242;SDS011;42155;53.096;23.226;2023-04-19T00:47:42;8.10;;;4.28;;
56242;SDS011;42155;53.096;23.226;2023-04-19T00:49:43;9.68;;;4.50;;
56242;SDS011;42155;53.096;23.226;2023-04-19T00:51:43;8.55;;;3.85;;
56242;SDS011;42155;53.096;23.226;2023-04-19T00:53:44;6.70;;;4.18;;
56242;SDS011;42155;53.096;23.226;2023-04-19T00:55:44;7.05;;;4.20;;
56242;SDS011;42155;53.096;23.226;2023-04-19T00:57:45;6.80;;;4.28;;
56242;SDS011;42155;53.096;23.226;2023-04-19T00:59:46;8.00;;;4.03;;
56242;SDS011;42155;53.096;23.226;2023-04-19T01:01:47;8.25;;;4.30;;
56242;SDS011;42155;53.096;23.226;2023-04-19T01:03:48;7.13;;;4.10;;
56242;SDS011;42155;53.096;23.226;2023-04-19T01:05:48;8.02;;;4.50;;
56242;SDS011;42155;53.096;23.226;2023-04-19T01:07:48;9.25;;;4.55;;
56242;SDS011;42155;53.096;23.226;2023-04-19T01:09:49;8.05;;;3.63;;
56242;SDS011;42155;53.096;23.226;2023-04-19T01:11:50;9.50;;;4.78;;
56242;SDS011;42155;53.096;23.226;2023-04-19T01:13:50;9.40;;;4.30;;
56242;SDS011;42155;53.096;23.226;2023-04-19T01:15:51;6.53;;;4.05;;
56242;SDS011;42155;53.096;23.226;2023-04-19T01:17:52;7.95;;;3.95;;
56242;SDS011;42155;53.096;23.226;2023-04-19T01:20:02;7.55;;;4.13;;
56242;SDS011;42155;53.096;23.226;2023-04-19T01:22:04;7.93;;;4.25;;
56242;SDS011;42155;53.096;23.226;2023-04-19T01:24:05;9.15;;;4.60;;
56242;SDS011;42155;53.096;23.226;2023-04-19T01:26:06;8.43;;;4.30;;
56242;SDS011;42155;53.096;23.226;2023-04-19T01:28:06;8.70;;;4.32;;
56242;SDS011;42155;53.096;23.226;2023-04-19T01:30:07;6.78;;;4.32;;
56242;SDS011;42155;53.096;23.226;2023-04-19T01:32:07;8.90;;;4.70;;
56242;SDS011;42155;53.096;23.226;2023-04-19T01:34:08;6.55;;;4.28;;
56242;SDS011;42155;53.096;23.226;2023-04-19T01:36:08;7.78;;;4.35;;
56242;SDS011;42155;53.096;23.226;2023-04-19T01:38:08;9.23;;;4.88;;
56242;SDS011;42155;53.096;23.226;2023-04-19T01:40:09;7.78;;;4.78;;
56242;SDS011;42155;53.096;23.226;2023-04-19T01:42:09;9.63;;;4.95;;
56242;SDS011;42155;53.096;23.226;2023-04-19T01:44:10;9.75;;;5.13;;
56242;SDS011;42155;53.096;23.226;2023-04-19T01:46:10;9.48;;;5.07;;
56242;SDS011;42155;53.096;23.226;2023-04-19T01:48:11;10.73;;;5.45;;
56242;SDS011;42155;53.096;23.226;2023-04-19T01:50:11;11.15;;;5.30;;
56242;SDS011;42155;53.096;23.226;2023-04-19T01:52:11;9.65;;;5.22;;
56242;SDS011;42155;53.096;23.226;2023-04-19T01:54:12;9.27;;;5.40;;
56242;SDS011;42155;53.096;23.226;2023-04-19T01:56:12;8.30;;;4.93;;
56242;SDS011;42155;53.096;23.226;2023-04-19T01:58:12;7.78;;;4.75;;
56242;SDS011;42155;53.096;23.226;2023-04-19T02:00:13;8.90;;;5.15;;
56242;SDS011;42155;53.096;23.226;2023-04-19T02:02:13;9.23;;;5.25;;
56242;SDS011;42155;53.096;23.226;2023-04-19T02:04:13;10.32;;;5.22;;
56242;SDS011;42155;53.096;23.226;2023-04-19T02:06:14;10.35;;;5.60;;
56242;SDS011;42155;53.096;23.226;2023-04-19T02:08:14;9.50;;;5.30;;
56242;SDS011;42155;53.096;23.226;2023-04-19T02:10:15;9.77;;;5.15;;
56242;SDS011;42155;53.096;23.226;2023-04-19T02:12:15;9.93;;;5.50;;
56242;SDS011;42155;53.096;23.226;2023-04-19T02:14:15;9.48;;;5.57;;
56242;SDS011;42155;53.096;23.226;2023-04-19T02:16:16;10.38;;;4.72;;
56242;SDS011;42155;53.096;23.226;2023-04-19T02:18:16;10.25;;;5.28;;
56242;SDS011;42155;53.096;23.226;2023-04-19T02:20:16;9.18;;;4.97;;
56242;SDS011;42155;53.096;23.226;2023-04-19T02:22:17;8.05;;;4.75;;
56242;SDS011;42155;53.096;23.226;2023-04-19T02:24:18;7.47;;;4.95;;
56242;SDS011;42155;53.096;23.226;2023-04-19T02:26:18;10.43;;;5.82;;
56242;SDS011;42155;53.096;23.226;2023-04-19T02:28:18;10.07;;;4.78;;
56242;SDS011;42155;53.096;23.226;2023-04-19T02:30:19;8.20;;;5.00;;
56242;SDS011;42155;53.096;23.226;2023-04-19T02:32:19;7.85;;;4.32;;
56242;SDS011;42155;53.096;23.226;2023-04-19T02:34:19;8.25;;;5.30;;
56242;SDS011;42155;53.096;23.226;2023-04-19T02:36:20;9.10;;;5.20;;
56242;SDS011;42155;53.096;23.226;2023-04-19T02:38:20;9.23;;;5.00;;
56242;SDS011;42155;53.096;23.226;2023-04-19T02:40:20;9.38;;;5.03;;
56242;SDS011;42155;53.096;23.226;2023-04-19T02:42:20;6.50;;;4.53;;
56242;SDS011;42155;53.096;23.226;2023-04-19T02:44:21;7.70;;;4.80;;
56242;SDS011;42155;53.096;23.226;2023-04-19T02:46:21;9.38;;;5.00;;
56242;SDS011;42155;53.096;23.226;2023-04-19T02:48:22;7.47;;;5.13;;
56242;SDS011;42155;53.096;23.226;2023-04-19T02:50:22;7.88;;;4.57;;
56242;SDS011;42155;53.096;23.226;2023-04-19T02:52:22;9.40;;;4.55;;
56242;SDS011;42155;53.096;23.226;2023-04-19T02:54:24;7.53;;;4.72;;
56242;SDS011;42155;53.096;23.226;2023-04-19T02:56:25;10.85;;;5.10;;
56242;SDS011;42155;53.096;23.226;2023-04-19T02:58:25;9.10;;;4.70;;
56242;SDS011;42155;53.096;23.226;2023-04-19T03:00:25;8.15;;;4.47;;
56242;SDS011;42155;53.096;23.226;2023-04-19T03:02:26;8.60;;;5.22;;
56242;SDS011;42155;53.096;23.226;2023-04-19T03:04:26;8.18;;;5.05;;
56242;SDS011;42155;53.096;23.226;2023-04-19T03:06:26;7.60;;;4.60;;
56242;SDS011;42155;53.096;23.226;2023-04-19T03:08:27;9.30;;;4.65;;
56242;SDS011;42155;53.096;23.226;2023-04-19T03:10:27;9.50;;;4.90;;
56242;SDS011;42155;53.096;23.226;2023-04-19T03:12:27;7.60;;;4.45;;
56242;SDS011;42155;53.096;23.226;2023-04-19T03:14:28;9.65;;;4.82;;
56242;SDS011;42155;53.096;23.226;2023-04-19T03:16:28;7.07;;;4.22;;
56242;SDS011;42155;53.096;23.226;2023-04-19T03:18:28;6.25;;;4.00;;
56242;SDS011;42155;53.096;23.226;2023-04-19T03:20:28;6.20;;;4.05;;
56242;SDS011;42155;53.096;23.226;2023-04-19T03:22:29;6.90;;;4.25;;
56242;SDS011;42155;53.096;23.226;2023-04-19T03:24:29;8.00;;;4.72;;
56242;SDS011;42155;53.096;23.226;2023-04-19T03:26:30;6.88;;;4.75;;
56242;SDS011;42155;53.096;23.226;2023-04-19T03:28:30;7.97;;;4.68;;
56242;SDS011;42155;53.096;23.226;2023-04-19T03:30:31;8.90;;;4.22;;
56242;SDS011;42155;53.096;23.226;2023-04-19T03:32:31;7.75;;;4.50;;
56242;SDS011;42155;53.096;23.226;2023-04-19T03:34:31;7.50;;;4.88;;
56242;SDS011;42155;53.096;23.226;2023-04-19T03:36:32;8.07;;;4.72;;
56242;SDS011;42155;53.096;23.226;2023-04-19T03:38:32;10.05;;;4.47;;
56242;SDS011;42155;53.096;23.226;2023-04-19T03:40:32;9.20;;;4.43;;
56242;SDS011;42155;53.096;23.226;2023-04-19T03:42:33;7.07;;;4.18;;
56242;SDS011;42155;53.096;23.226;2023-04-19T03:44:33;6.63;;;4.25;;
56242;SDS011;42155;53.096;23.226;2023-04-19T03:46:33;7.20;;;4.78;;
56242;SDS011;42155;53.096;23.226;2023-04-19T03:48:34;9.40;;;4.68;;
56242;SDS011;42155;53.096;23.226;2023-04-19T03:50:34;6.85;;;4.10;;
56242;SDS011;42155;53.096;23.226;2023-04-19T03:52:34;8.30;;;4.50;;
56242;SDS011;42155;53.096;23.226;2023-04-19T03:54:35;6.63;;;4.10;;
56242;SDS011;42155;53.096;23.226;2023-04-19T03:56:35;6.90;;;3.88;;
56242;SDS011;42155;53.096;23.226;2023-04-19T03:58:36;7.13;;;4.03;;
56242;SDS011;42155;53.096;23.226;2023-04-19T04:00:36;6.93;;;4.25;;
56242;SDS011;42155;53.096;23.226;2023-04-19T04:02:36;6.47;;;3.92;;
56242;SDS011;42155;53.096;23.226;2023-04-19T04:04:37;6.82;;;4.25;;
56242;SDS011;42155;53.096;23.226;2023-04-19T04:06:37;6.10;;;3.97;;
56242;SDS011;42155;53.096;23.226;2023-04-19T04:08:38;5.90;;;4.20;;
56242;SDS011;42155;53.096;23.226;2023-04-19T04:10:38;5.63;;;3.35;;
56242;SDS011;42155;53.096;23.226;2023-04-19T04:12:38;6.75;;;3.92;;
56242;SDS011;42155;53.096;23.226;2023-04-19T04:14:39;5.88;;;3.65;;
56242;SDS011;42155;53.096;23.226;2023-04-19T04:16:39;4.88;;;3.55;;
56242;SDS011;42155;53.096;23.226;2023-04-19T04:18:39;5.95;;;3.78;;
56242;SDS011;42155;53.096;23.226;2023-04-19T04:20:40;5.10;;;3.20;;
56242;SDS011;42155;53.096;23.226;2023-04-19T04:22:42;6.18;;;3.40;;
56242;SDS011;42155;53.096;23.226;2023-04-19T04:24:43;5.88;;;3.38;;
56242;SDS011;42155;53.096;23.226;2023-04-19T04:26:44;5.40;;;3.80;;
56242;SDS011;42155;53.096;23.226;2023-04-19T04:28:44;6.85;;;3.88;;
56242;SDS011;42155;53.096;23.226;2023-04-19T04:30:45;6.07;;;4.20;;
56242;SDS011;42155;53.096;23.226;2023-04-19T04:32:45;6.80;;;3.90;;
56242;SDS011;42155;53.096;23.226;2023-04-19T04:34:45;5.10;;;3.35;;
56242;SDS011;42155;53.096;23.226;2023-04-19T04:36:45;4.85;;;3.35;;
56242;SDS011;42155;53.096;23.226;2023-04-19T04:38:46;6.88;;;3.80;;
56242;SDS011;42155;53.096;23.226;2023-04-19T04:40:49;10.07;;;4.53;;
56242;SDS011;42155;53.096;23.226;2023-04-19T04:42:50;6.13;;;3.50;;
56242;SDS011;42155;53.096;23.226;2023-04-19T04:44:50;7.05;;;4.25;;
56242;SDS011;42155;53.096;23.226;2023-04-19T04:46:51;6.13;;;3.85;;
56242;SDS011;42155;53.096;23.226;2023-04-19T04:48:51;6.05;;;3.58;;
56242;SDS011;42155;53.096;23.226;2023-04-19T04:50:52;6.65;;;3.65;;
56242;SDS011;42155;53.096;23.226;2023-04-19T04:52:52;7.35;;;3.55;;
56242;SDS011;42155;53.096;23.226;2023-04-19T04:54:52;4.82;;;3.28;;
56242;SDS011;42155;53.096;23.226;2023-04-19T04:56:53;5.45;;;3.67;;
56242;SDS011;42155;53.096;23.226;2023-04-19T04:58:53;5.55;;;3.35;;
56242;SDS011;42155;53.096;23.226;2023-04-19T05:00:53;6.03;;;3.42;;
56242;SDS011;42155;53.096;23.226;2023-04-19T05:02:54;6.40;;;3.65;;
56242;SDS011;42155;53.096;23.226;2023-04-19T05:04:54;6.85;;;3.85;;
56242;SDS011;42155;53.096;23.226;2023-04-19T05:06:54;6.50;;;3.80;;
56242;SDS011;42155;53.096;23.226;2023-04-19T05:08:55;5.38;;;3.53;;
56242;SDS011;42155;53.096;23.226;2023-04-19T05:10:55;5.35;;;3.45;;
56242;SDS011;42155;53.096;23.226;2023-04-19T05:12:55;7.32;;;4.30;;
56242;SDS011;42155;53.096;23.226;2023-04-19T05:14:56;7.68;;;4.35;;
56242;SDS011;42155;53.096;23.226;2023-04-19T05:16:56;5.53;;;3.78;;
56242;SDS011;42155;53.096;23.226;2023-04-19T05:18:56;7.53;;;4.05;;
56242;SDS011;42155;53.096;23.226;2023-04-19T05:20:57;6.15;;;4.03;;
56242;SDS011;42155;53.096;23.226;2023-04-19T05:22:57;6.15;;;4.05;;
56242;SDS011;42155;53.096;23.226;2023-04-19T05:24:59;6.68;;;4.50;;
56242;SDS011;42155;53.096;23.226;2023-04-19T05:26:59;6.90;;;4.47;;
56242;SDS011;42155;53.096;23.226;2023-04-19T05:28:59;7.55;;;4.55;;
56242;SDS011;42155;53.096;23.226;2023-04-19T05:31:00;7.38;;;4.43;;
56242;SDS011;42155;53.096;23.226;2023-04-19T05:33:00;6.57;;;4.28;;
56242;SDS011;42155;53.096;23.226;2023-04-19T05:35:00;8.10;;;4.28;;
56242;SDS011;42155;53.096;23.226;2023-04-19T05:37:01;6.53;;;4.30;;
56242;SDS011;42155;53.096;23.226;2023-04-19T05:39:02;8.82;;;4.78;;
56242;SDS011;42155;53.096;23.226;2023-04-19T05:41:03;6.90;;;5.20;;
56242;SDS011;42155;53.096;23.226;2023-04-19T05:43:03;10.77;;;5.40;;
56242;SDS011;42155;53.096;23.226;2023-04-19T05:45:04;8.40;;;5.13;;
56242;SDS011;42155;53.096;23.226;2023-04-19T05:47:05;7.18;;;4.82;;
56242;SDS011;42155;53.096;23.226;2023-04-19T05:49:05;8.18;;;4.82;;
56242;SDS011;42155;53.096;23.226;2023-04-19T05:51:05;8.40;;;5.30;;
56242;SDS011;42155;53.096;23.226;2023-04-19T05:53:06;8.38;;;4.57;;
56242;SDS011;42155;53.096;23.226;2023-04-19T05:55:06;7.25;;;4.70;;
56242;SDS011;42155;53.096;23.226;2023-04-19T05:57:07;8.68;;;5.43;;
56242;SDS011;42155;53.096;23.226;2023-04-19T05:59:07;8.00;;;5.53;;
56242;SDS011;42155;53.096;23.226;2023-04-19T06:01:07;8.02;;;5.78;;
56242;SDS011;42155;53.096;23.226;2023-04-19T06:03:08;11.18;;;5.90;;
56242;SDS011;42155;53.096;23.226;2023-04-19T06:05:08;9.65;;;5.30;;
56242;SDS011;42155;53.096;23.226;2023-04-19T06:07:09;9.48;;;5.75;;
56242;SDS011;42155;53.096;23.226;2023-04-19T06:09:09;10.77;;;6.10;;
56242;SDS011;42155;53.096;23.226;2023-04-19T06:11:10;9.82;;;5.28;;
56242;SDS011;42155;53.096;23.226;2023-04-19T06:13:10;9.23;;;5.63;;
56242;SDS011;42155;53.096;23.226;2023-04-19T06:15:10;9.20;;;5.80;;
56242;SDS011;42155;53.096;23.226;2023-04-19T06:17:11;7.75;;;5.05;;
56242;SDS011;42155;53.096;23.226;2023-04-19T06:19:11;9.80;;;5.85;;
56242;SDS011;42155;53.096;23.226;2023-04-19T06:21:13;7.55;;;5.18;;
56242;SDS011;42155;53.096;23.226;2023-04-19T06:23:20;9.02;;;5.55;;
56242;SDS011;42155;53.096;23.226;2023-04-19T06:25:21;8.63;;;5.95;;
56242;SDS011;42155;53.096;23.226;2023-04-19T06:27:21;7.95;;;5.13;;
56242;SDS011;42155;53.096;23.226;2023-04-19T06:29:21;10.27;;;5.15;;
56242;SDS011;42155;53.096;23.226;2023-04-19T06:31:22;8.13;;;5.35;;
56242;SDS011;42155;53.096;23.226;2023-04-19T06:33:22;7.68;;;5.50;;
56242;SDS011;42155;53.096;23.226;2023-04-19T06:35:23;9.65;;;5.50;;
56242;SDS011;42155;53.096;23.226;2023-04-19T06:37:23;9.25;;;6.20;;
56242;SDS011;42155;53.096;23.226;2023-04-19T06:39:23;7.95;;;5.18;;
56242;SDS011;42155;53.096;23.226;2023-04-19T06:41:24;8.85;;;5.65;;
56242;SDS011;42155;53.096;23.226;2023-04-19T06:43:24;9.90;;;5.93;;
56242;SDS011;42155;53.096;23.226;2023-04-19T06:45:24;8.65;;;6.20;;
56242;SDS011;42155;53.096;23.226;2023-04-19T06:47:24;9.38;;;6.13;;
56242;SDS011;42155;53.096;23.226;2023-04-19T06:49:25;9.10;;;6.20;;
56242;SDS011;42155;53.096;23.226;2023-04-19T06:51:25;9.43;;;6.28;;
56242;SDS011;42155;53.096;23.226;2023-04-19T06:53:25;12.93;;;6.57;;
56242;SDS011;42155;53.096;23.226;2023-04-19T06:55:26;8.10;;;5.97;;
56242;SDS011;42155;53.096;23.226;2023-04-19T06:57:26;11.85;;;6.85;;
56242;SDS011;42155;53.096;23.226;2023-04-19T06:59:26;9.43;;;6.78;;
56242;SDS011;42155;53.096;23.226;2023-04-19T07:01:27;10.82;;;6.72;;
56242;SDS011;42155;53.096;23.226;2023-04-19T07:03:27;10.25;;;6.72;;
56242;SDS011;42155;53.096;23.226;2023-04-19T07:05:28;9.50;;;6.00;;
56242;SDS011;42155;53.096;23.226;2023-04-19T07:07:29;11.52;;;7.32;;
56242;SDS011;42155;53.096;23.226;2023-04-19T07:09:30;8.85;;;6.07;;
56242;SDS011;42155;53.096;23.226;2023-04-19T07:11:30;11.40;;;6.47;;
56242;SDS011;42155;53.096;23.226;2023-04-19T07:13:31;10.43;;;6.57;;
56242;SDS011;42155;53.096;23.226;2023-04-19T07:15:31;10.95;;;6.93;;
56242;SDS011;42155;53.096;23.226;2023-04-19T07:17:33;10.88;;;6.70;;
56242;SDS011;42155;53.096;23.226;2023-04-19T07:19:34;9.45;;;6.60;;
56242;SDS011;42155;53.096;23.226;2023-04-19T07:21:34;10.43;;;5.60;;
56242;SDS011;42155;53.096;23.226;2023-04-19T07:23:34;10.90;;;6.85;;
56242;SDS011;42155;53.096;23.226;2023-04-19T07:25:35;10.75;;;6.75;;
56242;SDS011;42155;53.096;23.226;2023-04-19T07:27:35;12.85;;;7.43;;
56242;SDS011;42155;53.096;23.226;2023-04-19T07:29:35;11.23;;;7.68;;
56242;SDS011;42155;53.096;23.226;2023-04-19T07:31:36;10.40;;;6.97;;
56242;SDS011;42155;53.096;23.226;2023-04-19T07:33:36;13.73;;;6.45;;
56242;SDS011;42155;53.096;23.226;2023-04-19T07:35:40;10.07;;;6.63;;
56242;SDS011;42155;53.096;23.226;2023-04-19T07:37:41;15.32;;;7.50;;
56242;SDS011;42155;53.096;23.226;2023-04-19T07:39:41;12.02;;;7.10;;
56242;SDS011;42155;53.096;23.226;2023-04-19T07:41:41;10.65;;;6.43;;
56242;SDS011;42155;53.096;23.226;2023-04-19T07:43:42;10.30;;;6.45;;
56242;SDS011;42155;53.096;23.226;2023-04-19T07:45:43;11.23;;;6.90;;
56242;SDS011;42155;53.096;23.226;2023-04-19T07:47:43;10.73;;;7.03;;
56242;SDS011;42155;53.096;23.226;2023-04-19T07:49:43;9.63;;;6.82;;
56242;SDS011;42155;53.096;23.226;2023-04-19T07:51:44;11.30;;;7.35;;
56242;SDS011;42155;53.096;23.226;2023-04-19T07:53:45;10.88;;;7.28;;
56242;SDS011;42155;53.096;23.226;2023-04-19T07:55:45;11.75;;;6.85;;
56242;SDS011;42155;53.096;23.226;2023-04-19T07:57:46;11.02;;;7.30;;
56242;SDS011;42155;53.096;23.226;2023-04-19T07:59:46;11.20;;;7.13;;
56242;SDS011;42155;53.096;23.226;2023-04-19T08:01:47;19.77;;;7.38;;
56242;SDS011;42155;53.096;23.226;2023-04-19T08:03:48;9.88;;;6.75;;
56242;SDS011;42155;53.096;23.226;2023-04-19T08:05:49;10.82;;;7.20;;
56242;SDS011;42155;53.096;23.226;2023-04-19T08:07:50;13.05;;;7.82;;
56242;SDS011;42155;53.096;23.226;2023-04-19T08:09:51;12.90;;;7.78;;
56242;SDS011;42155;53.096;23.226;2023-04-19T08:11:51;11.10;;;6.93;;
56242;SDS011;42155;53.096;23.226;2023-04-19T08:13:52;13.15;;;8.07;;
56242;SDS011;42155;53.096;23.226;2023-04-19T08:15:52;11.20;;;7.32;;
56242;SDS011;42155;53.096;23.226;2023-04-19T08:17:52;12.55;;;7.30;;
56242;SDS011;42155;53.096;23.226;2023-04-19T08:19:53;14.82;;;8.05;;
56242;SDS011;42155;53.096;23.226;2023-04-19T08:21:53;11.90;;;6.97;;
56242;SDS011;42155;53.096;23.226;2023-04-19T08:23:53;11.27;;;7.10;;
56242;SDS011;42155;53.096;23.226;2023-04-19T08:25:54;11.73;;;7.35;;
56242;SDS011;42155;53.096;23.226;2023-04-19T08:27:54;12.38;;;7.60;;
56242;SDS011;42155;53.096;23.226;2023-04-19T08:29:55;12.38;;;7.93;;
56242;SDS011;42155;53.096;23.226;2023-04-19T08:31:55;11.65;;;7.53;;
56242;SDS011;42155;53.096;23.226;2023-04-19T08:33:55;12.43;;;7.65;;
56242;SDS011;42155;53.096;23.226;2023-04-19T08:35:55;15.50;;;7.30;;
56242;SDS011;42155;53.096;23.226;2023-04-19T08:37:56;9.80;;;7.13;;
56242;SDS011;42155;53.096;23.226;2023-04-19T08:39:56;12.43;;;7.18;;
56242;SDS011;42155;53.096;23.226;2023-04-19T08:41:56;12.90;;;7.82;;
56242;SDS011;42155;53.096;23.226;2023-04-19T08:44:04;11.65;;;7.47;;
56242;SDS011;42155;53.096;23.226;2023-04-19T08:46:05;11.45;;;7.72;;
56242;SDS011;42155;53.096;23.226;2023-04-19T08:48:08;13.93;;;7.47;;
56242;SDS011;42155;53.096;23.226;2023-04-19T08:50:09;11.45;;;7.45;;
56242;SDS011;42155;53.096;23.226;2023-04-19T08:52:10;12.63;;;7.35;;
56242;SDS011;42155;53.096;23.226;2023-04-19T08:54:12;11.95;;;7.57;;
56242;SDS011;42155;53.096;23.226;2023-04-19T08:56:13;12.35;;;7.93;;
56242;SDS011;42155;53.096;23.226;2023-04-19T08:58:14;12.65;;;7.38;;
56242;SDS011;42155;53.096;23.226;2023-04-19T09:00:14;11.57;;;7.80;;
56242;SDS011;42155;53.096;23.226;2023-04-19T09:02:15;11.32;;;7.43;;
56242;SDS011;42155;53.096;23.226;2023-04-19T09:04:15;12.52;;;7.57;;
56242;SDS011;42155;53.096;23.226;2023-04-19T09:06:16;11.80;;;7.82;;
56242;SDS011;42155;53.096;23.226;2023-04-19T09:08:23;13.48;;;7.72;;
56242;SDS011;42155;53.096;23.226;2023-04-19T09:10:25;10.98;;;6.85;;
56242;SDS011;42155;53.096;23.226;2023-04-19T09:12:26;11.38;;;7.65;;
56242;SDS011;42155;53.096;23.226;2023-04-19T09:14:26;13.38;;;7.82;;
56242;SDS011;42155;53.096;23.226;2023-04-19T09:16:27;13.80;;;7.90;;
56242;SDS011;42155;53.096;23.226;2023-04-19T09:18:28;12.63;;;7.97;;
56242;SDS011;42155;53.096;23.226;2023-04-19T09:20:34;11.23;;;7.78;;
56242;SDS011;42155;53.096;23.226;2023-04-19T09:22:36;12.80;;;7.78;;
56242;SDS011;42155;53.096;23.226;2023-04-19T09:24:37;13.15;;;7.88;;
56242;SDS011;42155;53.096;23.226;2023-04-19T09:26:37;15.32;;;7.63;;
56242;SDS011;42155;53.096;23.226;2023-04-19T09:28:54;13.52;;;8.07;;
56242;SDS011;42155;53.096;23.226;2023-04-19T09:30:58;14.18;;;8.10;;
56242;SDS011;42155;53.096;23.226;2023-04-19T09:33:10;15.45;;;8.30;;
56242;SDS011;42155;53.096;23.226;2023-04-19T09:35:10;12.38;;;8.05;;
56242;SDS011;42155;53.096;23.226;2023-04-19T09:37:11;16.00;;;8.35;;
56242;SDS011;42155;53.096;23.226;2023-04-19T09:39:12;14.38;;;8.40;;
56242;SDS011;42155;53.096;23.226;2023-04-19T09:41:12;14.23;;;8.63;;
56242;SDS011;42155;53.096;23.226;2023-04-19T09:43:13;12.55;;;7.88;;
56242;SDS011;42155;53.096;23.226;2023-04-19T09:45:23;13.20;;;8.30;;
56242;SDS011;42155;53.096;23.226;2023-04-19T09:47:26;13.73;;;7.88;;
56242;SDS011;42155;53.096;23.226;2023-04-19T09:49:27;13.18;;;7.85;;
56242;SDS011;42155;53.096;23.226;2023-04-19T09:51:38;11.73;;;7.65;;
56242;SDS011;42155;53.096;23.226;2023-04-19T09:53:40;13.77;;;6.70;;
56242;SDS011;42155;53.096;23.226;2023-04-19T09:55:41;14.40;;;7.68;;
56242;SDS011;42155;53.096;23.226;2023-04-19T09:57:44;12.30;;;6.88;;
56242;SDS011;42155;53.096;23.226;2023-04-19T09:59:44;16.40;;;6.88;;
56242;SDS011;42155;53.096;23.226;2023-04-19T10:01:53;9.70;;;6.20;;
56242;SDS011;42155;53.096;23.226;2023-04-19T10:03:54;14.10;;;6.30;;
56242;SDS011;42155;53.096;23.226;2023-04-19T10:05:56;9.15;;;5.40;;
56242;SDS011;42155;53.096;23.226;2023-04-19T10:07:56;9.98;;;6.30;;
56242;SDS011;42155;53.096;23.226;2023-04-19T10:09:59;7.85;;;5.57;;
56242;SDS011;42155;53.096;23.226;2023-04-19T10:12:02;9.40;;;6.10;;
56242;SDS011;42155;53.096;23.226;2023-04-19T10:14:08;10.13;;;5.53;;
56242;SDS011;42155;53.096;23.226;2023-04-19T10:16:09;9.68;;;6.22;;
56242;SDS011;42155;53.096;23.226;2023-04-19T10:18:09;11.73;;;5.82;;
56242;SDS011;42155;53.096;23.226;2023-04-19T10:20:12;11.77;;;5.63;;
56242;SDS011;42155;53.096;23.226;2023-04-19T10:22:25;9.38;;;4.72;;
56242;SDS011;42155;53.096;23.226;2023-04-19T10:24:27;8.50;;;4.72;;
56242;SDS011;42155;53.096;23.226;2023-04-19T10:26:27;9.20;;;5.22;;
56242;SDS011;42155;53.096;23.226;2023-04-19T10:28:28;7.57;;;5.07;;
56242;SDS011;42155;53.096;23.226;2023-04-19T10:30:28;9.50;;;5.72;;
56242;SDS011;42155;53.096;23.226;2023-04-19T10:32:30;15.68;;;5.68;;
56242;SDS011;42155;53.096;23.226;2023-04-19T10:34:40;8.68;;;5.15;;
56242;SDS011;42155;53.096;23.226;2023-04-19T10:36:40;7.93;;;4.70;;
56242;SDS011;42155;53.096;23.226;2023-04-19T10:38:49;6.35;;;4.43;;
56242;SDS011;42155;53.096;23.226;2023-04-19T10:47:40;10.45;;;4.97;;
56242;SDS011;42155;53.096;23.226;2023-04-19T10:49:43;6.55;;;4.32;;
56242;SDS011;42155;53.096;23.226;2023-04-19T10:51:51;6.97;;;3.95;;
56242;SDS011;42155;53.096;23.226;2023-04-19T10:53:52;7.05;;;4.05;;
56242;SDS011;42155;53.096;23.226;2023-04-19T10:55:52;8.38;;;4.32;;
56242;SDS011;42155;53.096;23.226;2023-04-19T10:58:03;7.15;;;4.03;;
56242;SDS011;42155;53.096;23.226;2023-04-19T11:00:20;9.10;;;3.90;;
56242;SDS011;42155;53.096;23.226;2023-04-19T11:04:22;8.35;;;4.47;;
56242;SDS011;42155;53.096;23.226;2023-04-19T11:08:52;9.20;;;4.10;;
56242;SDS011;42155;53.096;23.226;2023-04-19T11:10:53;7.32;;;4.30;;
56242;SDS011;42155;53.096;23.226;2023-04-19T11:12:56;8.52;;;4.22;;
56242;SDS011;42155;53.096;23.226;2023-04-19T11:14:57;7.15;;;4.28;;
56242;SDS011;42155;53.096;23.226;2023-04-19T11:16:58;7.57;;;3.92;;
56242;SDS011;42155;53.096;23.226;2023-04-19T11:18:59;7.07;;;4.00;;
56242;SDS011;42155;53.096;23.226;2023-04-19T11:20:59;7.13;;;4.40;;
56242;SDS011;42155;53.096;23.226;2023-04-19T11:22:59;6.45;;;3.83;;
56242;SDS011;42155;53.096;23.226;2023-04-19T11:27:07;5.78;;;3.40;;
56242;SDS011;42155;53.096;23.226;2023-04-19T11:29:07;6.90;;;3.92;;
56242;SDS011;42155;53.096;23.226;2023-04-19T11:31:08;7.03;;;4.13;;
56242;SDS011;42155;53.096;23.226;2023-04-19T11:33:09;6.50;;;4.07;;
56242;SDS011;42155;53.096;23.226;2023-04-19T11:35:11;5.20;;;3.53;;
56242;SDS011;42155;53.096;23.226;2023-04-19T11:37:12;6.22;;;3.70;;
56242;SDS011;42155;53.096;23.226;2023-04-19T11:39:12;6.95;;;2.90;;
56242;SDS011;42155;53.096;23.226;2023-04-19T11:41:12;5.45;;;3.30;;
56242;SDS011;42155;53.096;23.226;2023-04-19T11:43:13;6.10;;;3.08;;
56242;SDS011;42155;53.096;23.226;2023-04-19T11:45:22;4.75;;;3.15;;
56242;SDS011;42155;53.096;23.226;2023-04-19T11:47:33;7.82;;;3.95;;
56242;SDS011;42155;53.096;23.226;2023-04-19T11:49:35;6.22;;;3.28;;
56242;SDS011;42155;53.096;23.226;2023-04-19T11:51:40;8.20;;;2.90;;
56242;SDS011;42155;53.096;23.226;2023-04-19T11:53:41;8.98;;;3.22;;
56242;SDS011;42155;53.096;23.226;2023-04-19T11:55:42;6.00;;;3.00;;
56242;SDS011;42155;53.096;23.226;2023-04-19T11:57:43;7.95;;;2.85;;
56242;SDS011;42155;53.096;23.226;2023-04-19T12:00:00;6.93;;;2.90;;
56242;SDS011;42155;53.096;23.226;2023-04-19T12:02:06;5.38;;;2.70;;
56242;SDS011;42155;53.096;23.226;2023-04-19T12:04:10;10.57;;;4.72;;
56242;SDS011;42155;53.096;23.226;2023-04-19T12:06:12;4.13;;;2.70;;
56242;SDS011;42155;53.096;23.226;2023-04-19T12:08:13;6.93;;;2.90;;
56242;SDS011;42155;53.096;23.226;2023-04-19T12:10:13;5.47;;;2.60;;